createdAt,value
2018-04-30T00:00:47.002Z,4.50
2018-04-30T00:03:14.363Z,3.70
2018-04-30T00:05:41.745Z,3.67
2018-04-30T00:08:09.122Z,2.70
2018-04-30T00:10:36.495Z,2.90
2018-04-30T00:13:03.868Z,2.67
2018-04-30T00:15:31.246Z,2.97
2018-04-30T00:17:58.656Z,3.00
2018-04-30T00:20:26.034Z,3.10
2018-04-30T00:22:53.407Z,3.47
2018-04-30T00:25:20.782Z,2.40
2018-04-30T00:27:48.143Z,2.80
2018-04-30T00:30:15.547Z,2.80
2018-04-30T00:32:42.929Z,2.83
2018-04-30T00:35:10.304Z,3.00
2018-04-30T00:37:37.692Z,2.00
2018-04-30T00:40:05.074Z,2.80
2018-04-30T00:42:32.456Z,1.73
2018-04-30T00:44:59.847Z,1.90
2018-04-30T00:47:27.218Z,1.90
2018-04-30T00:49:54.590Z,1.80
2018-04-30T00:52:21.978Z,2.10
2018-04-30T00:55:00.090Z,1.70
2018-04-30T00:57:27.465Z,1.97
2018-04-30T00:59:54.835Z,1.73
2018-04-30T01:02:22.216Z,1.60
2018-04-30T01:04:49.591Z,1.60
2018-04-30T01:07:17.038Z,1.10
2018-04-30T01:09:44.425Z,1.37
2018-04-30T01:12:11.995Z,1.20
2018-04-30T01:14:39.368Z,1.90
2018-04-30T01:17:06.743Z,1.80
2018-04-30T01:19:34.119Z,1.50
2018-04-30T01:22:01.561Z,1.60
2018-04-30T01:24:28.911Z,1.60
2018-04-30T01:26:56.292Z,1.67
2018-04-30T01:29:23.662Z,1.47
2018-04-30T01:31:51.102Z,1.53
2018-04-30T01:34:18.488Z,1.23
2018-04-30T01:36:45.861Z,1.53
2018-04-30T01:39:13.243Z,1.60
2018-04-30T01:41:40.776Z,1.43
2018-04-30T01:44:08.211Z,1.73
2018-04-30T01:46:35.786Z,1.37
2018-04-30T01:49:03.160Z,1.10
2018-04-30T01:51:30.530Z,1.30
2018-04-30T01:53:57.902Z,1.20
2018-04-30T01:56:25.277Z,1.40
2018-04-30T01:58:52.667Z,1.10
2018-04-30T02:01:20.047Z,1.20
2018-04-30T02:03:47.440Z,1.70
2018-04-30T02:06:15.011Z,1.30
2018-04-30T02:08:42.400Z,0.87
2018-04-30T02:11:09.773Z,1.20
2018-04-30T02:13:37.158Z,1.30
2018-04-30T02:16:04.532Z,1.00
2018-04-30T02:18:31.961Z,1.50
2018-04-30T02:20:59.327Z,1.03
2018-04-30T02:23:26.721Z,0.97
2018-04-30T02:25:54.093Z,0.90
2018-04-30T02:28:21.659Z,0.80
2018-04-30T02:30:49.034Z,0.80
2018-04-30T02:33:16.414Z,0.70
2018-04-30T02:35:43.807Z,0.80
2018-04-30T02:38:11.205Z,0.90
2018-04-30T02:40:38.670Z,0.80
2018-04-30T02:43:06.084Z,0.70
2018-04-30T02:45:33.443Z,0.90
2018-04-30T02:48:00.940Z,0.77
2018-04-30T02:50:28.299Z,0.80
2018-04-30T02:52:55.675Z,1.10
2018-04-30T02:55:23.063Z,1.30
2018-04-30T02:57:50.471Z,0.73
2018-04-30T03:00:17.850Z,0.87
2018-04-30T03:02:45.231Z,0.80
2018-04-30T03:05:12.599Z,0.87
2018-04-30T03:07:39.982Z,0.70
2018-04-30T03:10:07.374Z,0.70
2018-04-30T03:12:34.735Z,0.70
2018-04-30T03:15:02.121Z,0.60
2018-04-30T03:17:29.491Z,0.70
2018-04-30T03:19:56.871Z,0.50
2018-04-30T03:22:24.247Z,0.80
2018-04-30T03:24:51.621Z,0.60
2018-04-30T03:27:19.000Z,0.90
2018-04-30T03:29:46.371Z,0.40
2018-04-30T03:32:13.739Z,0.50
2018-04-30T03:34:41.126Z,0.67
2018-04-30T03:37:08.568Z,0.70
2018-04-30T03:39:35.955Z,0.70
2018-04-30T03:42:03.338Z,1.00
2018-04-30T03:44:30.739Z,0.70
2018-04-30T03:46:58.115Z,0.90
2018-04-30T03:49:25.533Z,0.70
2018-04-30T03:51:52.919Z,0.70
2018-04-30T03:54:20.443Z,0.60
2018-04-30T03:56:47.827Z,0.60
2018-04-30T03:59:15.191Z,0.70
2018-04-30T04:01:54.207Z,0.53
2018-04-30T04:04:33.213Z,0.67
2018-04-30T04:07:00.582Z,0.63
2018-04-30T04:09:27.957Z,0.70
2018-04-30T04:11:55.336Z,0.87
2018-04-30T04:14:22.714Z,0.60
2018-04-30T04:16:50.082Z,0.97
2018-04-30T04:19:17.466Z,0.70
2018-04-30T04:21:44.831Z,0.60
2018-04-30T04:24:12.207Z,0.83
2018-04-30T04:26:39.590Z,0.50
2018-04-30T04:29:07.003Z,0.70
2018-04-30T04:31:34.354Z,0.60
2018-04-30T04:34:01.738Z,0.60
2018-04-30T04:36:29.117Z,0.53
2018-04-30T04:38:56.487Z,0.50
2018-04-30T04:41:23.854Z,0.50
2018-04-30T04:43:51.229Z,0.67
2018-04-30T04:46:18.617Z,0.73
2018-04-30T04:48:45.986Z,0.50
2018-04-30T04:51:13.370Z,0.80
2018-04-30T04:53:40.755Z,0.50
2018-04-30T04:56:08.141Z,0.40
2018-04-30T04:58:35.526Z,0.60
2018-04-30T05:01:02.902Z,0.47
2018-04-30T05:03:30.273Z,0.40
2018-04-30T05:05:57.663Z,0.40
2018-04-30T05:08:25.060Z,0.40
2018-04-30T05:10:52.484Z,0.47
2018-04-30T05:13:19.874Z,0.60
2018-04-30T05:15:47.269Z,0.50
2018-04-30T05:18:14.649Z,0.70
2018-04-30T05:20:42.045Z,0.70
2018-04-30T05:23:09.427Z,0.60
2018-04-30T05:25:37.006Z,0.70
2018-04-30T05:28:04.388Z,0.67
2018-04-30T05:30:31.759Z,0.80
2018-04-30T05:32:59.124Z,0.60
2018-04-30T05:35:26.563Z,0.70
2018-04-30T05:37:53.918Z,0.70
2018-04-30T05:40:21.333Z,0.70
2018-04-30T05:42:48.752Z,0.70
2018-04-30T05:45:16.124Z,0.60
2018-04-30T05:47:46.724Z,0.70
2018-04-30T05:50:16.761Z,0.60
2018-04-30T05:52:46.114Z,0.90
2018-04-30T05:55:13.650Z,0.63
2018-04-30T05:57:41.034Z,1.07
2018-04-30T06:00:08.411Z,1.07
2018-04-30T06:02:35.788Z,0.97
2018-04-30T06:05:03.179Z,1.17
2018-04-30T06:07:30.551Z,0.87
2018-04-30T06:09:57.943Z,1.00
2018-04-30T06:12:25.340Z,1.17
2018-04-30T06:14:52.743Z,1.20
2018-04-30T06:17:20.146Z,1.00
2018-04-30T06:19:47.532Z,1.90
2018-04-30T06:22:14.913Z,1.30
2018-04-30T06:24:42.342Z,1.23
2018-04-30T06:27:09.850Z,1.60
2018-04-30T06:29:37.708Z,1.50
2018-04-30T06:32:05.107Z,1.77
2018-04-30T06:34:32.573Z,1.67
2018-04-30T06:36:59.948Z,1.90
2018-04-30T06:39:27.352Z,1.70
2018-04-30T06:41:54.743Z,1.30
2018-04-30T06:44:22.120Z,1.60
2018-04-30T06:46:49.529Z,1.23
2018-04-30T06:49:16.912Z,1.90
2018-04-30T06:51:44.347Z,1.60
2018-04-30T06:54:11.726Z,1.50
2018-04-30T06:56:39.116Z,1.20
2018-04-30T06:59:06.506Z,1.53
2018-04-30T07:01:33.888Z,1.27
2018-04-30T07:04:01.255Z,1.00
2018-04-30T07:06:28.715Z,1.20
2018-04-30T07:08:56.087Z,1.00
2018-04-30T07:11:23.492Z,0.80
2018-04-30T07:13:50.861Z,1.10
2018-04-30T07:16:18.237Z,1.20
2018-04-30T07:18:45.721Z,1.20
2018-04-30T07:21:13.124Z,0.90
2018-04-30T07:23:40.516Z,1.27
2018-04-30T07:26:07.898Z,1.00
2018-04-30T07:28:35.283Z,1.13
2018-04-30T07:31:02.679Z,1.30
2018-04-30T07:33:30.062Z,1.43
2018-04-30T07:35:57.455Z,1.00
2018-04-30T07:38:24.879Z,1.40
2018-04-30T07:40:52.270Z,1.23
2018-04-30T07:43:20.959Z,1.00
2018-04-30T07:45:48.364Z,1.40
2018-04-30T07:48:16.009Z,1.13
2018-04-30T07:50:43.440Z,1.20
2018-04-30T07:53:10.930Z,1.20
2018-04-30T07:55:38.329Z,1.00
2018-04-30T07:58:05.720Z,1.13
2018-04-30T08:00:33.115Z,1.37
2018-04-30T08:03:00.598Z,0.90
2018-04-30T08:05:27.936Z,0.90
2018-04-30T08:07:55.311Z,1.30
2018-04-30T08:10:22.684Z,1.53
2018-04-30T08:12:50.061Z,0.80
2018-04-30T08:15:17.449Z,1.10
2018-04-30T08:17:44.822Z,1.40
2018-04-30T08:20:12.270Z,1.20
2018-04-30T08:22:39.663Z,1.20
2018-04-30T08:25:07.102Z,1.10
2018-04-30T08:27:35.121Z,1.00
2018-04-30T08:30:02.564Z,1.20
2018-04-30T08:32:30.977Z,1.27
2018-04-30T08:34:58.362Z,1.30
2018-04-30T08:37:25.740Z,1.03
2018-04-30T08:39:53.136Z,1.40
2018-04-30T08:42:20.517Z,1.03
2018-04-30T08:44:47.922Z,1.17
2018-04-30T08:47:15.338Z,1.00
2018-04-30T08:49:42.717Z,1.00
2018-04-30T08:52:10.137Z,0.90
2018-04-30T08:54:37.507Z,1.13
2018-04-30T08:57:04.891Z,1.00
2018-04-30T08:59:32.467Z,0.80
2018-04-30T09:01:59.852Z,0.93
2018-04-30T09:04:27.232Z,0.70
2018-04-30T09:06:54.622Z,1.10
2018-04-30T09:09:22.684Z,0.87
2018-04-30T09:11:50.156Z,0.97
2018-04-30T09:14:19.062Z,0.90
2018-04-30T09:16:46.445Z,0.90
2018-04-30T09:19:13.823Z,0.83
2018-04-30T09:21:41.205Z,0.70
2018-04-30T09:24:08.593Z,0.63
2018-04-30T09:26:35.982Z,0.80
2018-04-30T09:29:03.353Z,0.80
2018-04-30T09:31:30.728Z,0.70
2018-04-30T09:33:58.123Z,0.70
2018-04-30T09:36:25.611Z,0.90
2018-04-30T09:38:52.996Z,0.60
2018-04-30T09:41:20.432Z,0.90
2018-04-30T09:43:47.818Z,0.73
2018-04-30T09:46:15.179Z,0.67
2018-04-30T09:48:42.960Z,0.77
2018-04-30T09:51:10.343Z,0.80
2018-04-30T09:53:37.736Z,0.70
2018-04-30T09:56:05.112Z,0.80
2018-04-30T09:58:32.517Z,0.80
2018-04-30T10:00:59.884Z,0.70
2018-04-30T10:03:27.264Z,1.00
2018-04-30T10:05:54.647Z,0.63
2018-04-30T10:08:22.026Z,0.70
2018-04-30T10:10:49.397Z,0.90
2018-04-30T10:13:16.795Z,0.60
2018-04-30T10:15:44.192Z,1.00
2018-04-30T10:18:11.874Z,0.90
2018-04-30T10:20:39.275Z,0.90
2018-04-30T10:23:06.753Z,0.80
2018-04-30T10:25:34.133Z,0.73
2018-04-30T10:28:01.526Z,0.60
2018-04-30T10:30:28.992Z,0.90
2018-04-30T10:32:56.401Z,0.80
2018-04-30T10:35:23.775Z,0.50
2018-04-30T10:37:52.227Z,0.87
2018-04-30T10:40:19.579Z,0.60
2018-04-30T10:42:47.151Z,0.67
2018-04-30T10:45:14.523Z,0.90
2018-04-30T10:47:42.785Z,0.80
2018-04-30T10:50:10.285Z,0.90
2018-04-30T10:52:37.926Z,0.80
2018-04-30T10:55:05.303Z,0.90
2018-04-30T10:57:32.704Z,0.60
2018-04-30T11:00:00.158Z,1.03
2018-04-30T11:02:27.486Z,1.50
2018-04-30T11:04:54.883Z,1.83
2018-04-30T11:07:22.258Z,2.40
2018-04-30T11:09:49.667Z,1.50
2018-04-30T11:12:17.877Z,2.13
2018-04-30T11:14:45.288Z,1.13
2018-04-30T11:17:12.824Z,1.80
2018-04-30T11:19:40.293Z,1.50
2018-04-30T11:22:07.702Z,1.90
2018-04-30T11:24:35.257Z,0.83
2018-04-30T11:27:02.623Z,0.90
2018-04-30T11:29:30.075Z,1.10
2018-04-30T11:31:57.473Z,0.73
2018-04-30T11:34:24.900Z,0.60
2018-04-30T11:36:52.352Z,1.07
2018-04-30T11:39:19.824Z,0.70
2018-04-30T11:41:47.221Z,0.77
2018-04-30T11:44:14.615Z,0.67
2018-04-30T11:46:42.139Z,0.57
2018-04-30T11:49:09.584Z,0.90
2018-04-30T11:51:36.989Z,0.83
2018-04-30T11:54:04.479Z,0.50
2018-04-30T11:56:31.866Z,0.47
2018-04-30T11:58:59.257Z,0.50
2018-04-30T12:01:26.671Z,0.70
2018-04-30T12:03:54.043Z,0.80
2018-04-30T12:06:21.417Z,0.70
2018-04-30T12:08:48.835Z,0.70
2018-04-30T12:11:16.360Z,1.40
2018-04-30T12:13:43.759Z,0.87
2018-04-30T12:16:11.179Z,0.70
2018-04-30T12:18:38.556Z,1.00
2018-04-30T12:21:05.966Z,0.80
2018-04-30T12:23:33.326Z,0.53
2018-04-30T12:26:00.729Z,0.60
2018-04-30T12:28:28.215Z,0.60
2018-04-30T12:30:55.598Z,0.70
2018-04-30T12:33:23.124Z,0.70
2018-04-30T12:35:50.497Z,0.70
2018-04-30T12:38:17.873Z,1.00
2018-04-30T12:40:45.259Z,0.67
2018-04-30T12:43:12.677Z,0.97
2018-04-30T12:45:40.160Z,0.93
2018-04-30T12:48:07.522Z,1.03
2018-04-30T12:50:34.960Z,1.20
2018-04-30T12:53:02.356Z,1.23
2018-04-30T12:55:29.743Z,0.93
2018-04-30T12:57:57.128Z,1.00
2018-04-30T13:00:24.547Z,2.10
2018-04-30T13:02:51.982Z,1.30
2018-04-30T13:05:19.369Z,1.27
2018-04-30T13:07:46.744Z,1.20
2018-04-30T13:10:14.136Z,0.90
2018-04-30T13:12:41.585Z,1.07
2018-04-30T13:15:08.959Z,0.90
2018-04-30T13:17:36.339Z,1.30
2018-04-30T13:20:03.719Z,1.57
2018-04-30T13:22:31.091Z,0.90
2018-04-30T13:24:58.537Z,1.47
2018-04-30T13:27:25.933Z,1.00
2018-04-30T13:29:53.304Z,1.43
2018-04-30T13:32:20.690Z,1.20
2018-04-30T13:34:48.079Z,0.80
2018-04-30T13:37:15.517Z,0.80
2018-04-30T13:39:48.662Z,0.87
2018-04-30T13:42:20.179Z,0.67
2018-04-30T13:44:47.715Z,0.60
2018-04-30T13:47:15.106Z,0.83
2018-04-30T13:49:42.511Z,0.90
2018-04-30T13:52:09.884Z,0.60
2018-04-30T13:54:37.326Z,0.63
2018-04-30T13:57:04.719Z,0.90
2018-04-30T13:59:32.140Z,0.87
2018-04-30T14:01:59.533Z,0.73
2018-04-30T14:04:26.896Z,0.63
2018-04-30T14:06:57.517Z,0.80
2018-04-30T14:09:29.840Z,0.70
2018-04-30T14:11:58.491Z,0.80
2018-04-30T14:14:25.863Z,0.90
2018-04-30T14:16:53.282Z,0.80
2018-04-30T14:19:20.713Z,0.60
2018-04-30T14:21:48.107Z,0.60
2018-04-30T14:24:15.500Z,0.60
2018-04-30T14:26:42.889Z,0.80
2018-04-30T14:29:10.278Z,0.93
2018-04-30T14:31:37.749Z,0.87
2018-04-30T14:34:05.062Z,1.77
2018-04-30T14:36:32.442Z,1.57
2018-04-30T14:38:59.832Z,1.03
2018-04-30T14:41:27.232Z,1.23
2018-04-30T14:43:54.627Z,1.30
2018-04-30T14:46:22.086Z,1.30
2018-04-30T14:48:49.460Z,1.20
2018-04-30T14:51:16.892Z,1.50
2018-04-30T14:53:44.234Z,1.20
2018-04-30T14:56:11.625Z,1.50
2018-04-30T14:58:38.999Z,1.00
2018-04-30T15:01:06.375Z,0.90
2018-04-30T15:03:33.756Z,1.17
2018-04-30T15:06:01.132Z,1.20
2018-04-30T15:08:28.601Z,0.80
2018-04-30T15:10:55.969Z,1.10
2018-04-30T15:13:23.377Z,1.10
2018-04-30T15:15:50.813Z,0.83
2018-04-30T15:18:18.226Z,1.20
2018-04-30T15:20:45.646Z,0.97
2018-04-30T15:23:13.126Z,0.60
2018-04-30T15:25:40.666Z,0.80
2018-04-30T15:28:08.048Z,1.20
2018-04-30T15:30:35.779Z,0.90
2018-04-30T15:33:03.180Z,1.10
2018-04-30T15:35:30.590Z,1.53
2018-04-30T15:37:58.004Z,1.20
2018-04-30T15:40:25.372Z,1.10
2018-04-30T15:42:52.755Z,0.80
2018-04-30T15:45:20.473Z,1.07
2018-04-30T15:47:47.900Z,1.60
2018-04-30T15:50:15.255Z,1.50
2018-04-30T15:52:42.645Z,0.77
2018-04-30T15:55:10.061Z,1.00
2018-04-30T15:57:39.248Z,1.30
2018-04-30T16:00:06.758Z,0.90
2018-04-30T16:02:34.289Z,0.80
2018-04-30T16:05:03.888Z,0.80
2018-04-30T16:07:31.448Z,0.80
2018-04-30T16:09:58.833Z,0.50
2018-04-30T16:12:26.221Z,0.57
2018-04-30T16:14:53.603Z,0.80
2018-04-30T16:17:20.981Z,1.00
2018-04-30T16:19:48.364Z,1.70
2018-04-30T16:22:15.754Z,0.80
2018-04-30T16:24:43.191Z,0.97
2018-04-30T16:27:10.563Z,2.10
2018-04-30T16:29:37.972Z,2.67
2018-04-30T16:32:05.384Z,1.17
2018-04-30T16:34:32.784Z,1.10
2018-04-30T16:37:00.183Z,1.10
2018-04-30T16:39:27.615Z,1.20
2018-04-30T16:41:55.132Z,0.83
2018-04-30T16:44:22.622Z,0.93
2018-04-30T16:46:50.000Z,1.20
2018-04-30T16:49:17.491Z,0.80
2018-04-30T16:51:44.875Z,0.73
2018-04-30T16:54:12.327Z,0.60
2018-04-30T16:56:39.720Z,0.87
2018-04-30T16:59:07.142Z,0.90
2018-04-30T17:01:34.553Z,0.73
2018-04-30T17:04:01.943Z,0.97
2018-04-30T17:06:29.339Z,0.90
2018-04-30T17:08:56.721Z,1.00
2018-04-30T17:11:24.088Z,0.70
2018-04-30T17:13:51.471Z,0.80
2018-04-30T17:16:18.928Z,0.50
2018-04-30T17:18:46.336Z,0.90
2018-04-30T17:21:13.734Z,0.50
2018-04-30T17:23:41.286Z,0.80
2018-04-30T17:26:08.970Z,0.50
2018-04-30T17:28:36.371Z,0.63
2018-04-30T17:31:03.757Z,2.10
2018-04-30T17:33:31.123Z,1.23
2018-04-30T17:35:58.530Z,1.10
2018-04-30T17:38:25.920Z,1.70
2018-04-30T17:40:53.331Z,1.50
2018-04-30T17:43:20.710Z,1.77
2018-04-30T17:45:48.103Z,1.30
2018-04-30T17:48:15.500Z,1.33
2018-04-30T17:50:42.883Z,1.20
2018-04-30T17:53:10.249Z,3.00
2018-04-30T17:55:37.650Z,3.10
2018-04-30T17:58:05.021Z,2.00
2018-04-30T18:00:32.392Z,2.53
2018-04-30T18:02:59.830Z,3.33
2018-04-30T18:05:27.208Z,1.80
2018-04-30T18:07:54.598Z,2.13
2018-04-30T18:10:22.012Z,1.10
2018-04-30T18:12:49.477Z,0.70
2018-04-30T18:15:37.655Z,0.97
2018-04-30T18:18:05.150Z,1.00
2018-04-30T18:20:33.354Z,0.87
2018-04-30T18:23:00.723Z,0.97
2018-04-30T18:25:28.133Z,1.17
2018-04-30T18:27:55.506Z,0.77
2018-04-30T18:30:22.918Z,1.20
2018-04-30T18:32:50.299Z,1.33
2018-04-30T18:35:17.691Z,1.20
2018-04-30T18:37:45.063Z,1.47
2018-04-30T18:40:12.443Z,1.43
2018-04-30T18:42:39.829Z,1.03
2018-04-30T18:45:07.204Z,1.07
2018-04-30T18:47:34.660Z,0.83
2018-04-30T18:50:02.016Z,0.83
2018-04-30T18:52:29.406Z,1.20
2018-04-30T18:54:56.786Z,1.13
2018-04-30T18:57:24.177Z,0.80
2018-04-30T18:59:51.553Z,0.60
2018-04-30T19:02:18.942Z,0.77
2018-04-30T19:04:46.323Z,1.00
2018-04-30T19:07:13.711Z,1.47
2018-04-30T19:09:41.259Z,1.10
2018-04-30T19:12:08.628Z,0.80
2018-04-30T19:14:36.003Z,0.60
2018-04-30T19:17:03.394Z,0.93
2018-04-30T19:19:30.808Z,0.60
2018-04-30T19:21:58.168Z,0.83
2018-04-30T19:24:25.560Z,0.77
2018-04-30T19:26:52.955Z,1.40
2018-04-30T19:29:20.472Z,0.80
2018-04-30T19:31:47.967Z,0.50
2018-04-30T19:34:15.353Z,0.80
2018-04-30T19:36:42.760Z,0.70
2018-04-30T19:39:10.141Z,1.00
2018-04-30T19:41:37.534Z,0.60
2018-04-30T19:44:05.874Z,0.77
2018-04-30T19:46:33.247Z,0.60
2018-04-30T19:49:00.686Z,0.60
2018-04-30T19:51:28.075Z,0.70
2018-04-30T19:53:55.540Z,0.60
2018-04-30T19:56:22.925Z,0.83
2018-04-30T19:58:50.347Z,1.10
2018-04-30T20:01:17.736Z,0.87
2018-04-30T20:03:45.258Z,1.03
2018-04-30T20:06:12.623Z,0.90
2018-04-30T20:08:40.023Z,0.60
2018-04-30T20:11:07.400Z,0.90
2018-04-30T20:13:40.689Z,0.70
2018-04-30T20:16:08.184Z,1.10
2018-04-30T20:18:35.570Z,0.70
2018-04-30T20:21:02.987Z,0.60
2018-04-30T20:23:30.436Z,0.80
2018-04-30T20:25:57.915Z,0.80
2018-04-30T20:28:25.321Z,0.73
2018-04-30T20:30:53.276Z,0.80
2018-04-30T20:33:20.656Z,0.70
2018-04-30T20:35:48.169Z,0.97
2018-04-30T20:38:15.656Z,0.70
2018-04-30T20:40:43.042Z,1.30
2018-04-30T20:43:10.432Z,0.97
2018-04-30T20:45:37.811Z,0.63
2018-04-30T20:48:05.188Z,1.30
2018-04-30T20:50:32.684Z,1.00
2018-04-30T20:52:59.976Z,1.40
2018-04-30T20:55:27.353Z,1.70
2018-04-30T20:57:55.121Z,1.40
2018-04-30T21:00:22.539Z,1.30
2018-04-30T21:02:49.917Z,1.33
2018-04-30T21:05:17.307Z,2.07
2018-04-30T21:07:44.723Z,2.57
2018-04-30T21:10:12.117Z,1.67
2018-04-30T21:12:39.517Z,1.10
2018-04-30T21:15:06.992Z,1.70
2018-04-30T21:17:34.575Z,1.13
2018-04-30T21:20:01.848Z,1.27
2018-04-30T21:22:29.393Z,1.40
2018-04-30T21:24:56.801Z,1.30
2018-04-30T21:27:24.259Z,1.60
2018-04-30T21:29:51.612Z,1.20
2018-04-30T21:32:19.159Z,0.90
2018-04-30T21:34:51.235Z,0.90
2018-04-30T21:37:18.714Z,1.00
2018-04-30T21:39:46.219Z,0.50
2018-04-30T21:42:14.263Z,1.80
2018-04-30T21:44:41.639Z,1.13
2018-04-30T21:47:09.032Z,1.67
2018-04-30T21:49:36.421Z,1.53
2018-04-30T21:52:03.833Z,1.73
2018-04-30T21:54:31.273Z,1.37
2018-04-30T21:56:58.644Z,1.33
2018-04-30T21:59:26.076Z,1.10
2018-04-30T22:01:53.468Z,1.50
2018-04-30T22:04:20.862Z,1.20
2018-04-30T22:06:48.252Z,1.00
2018-04-30T22:09:15.639Z,1.20
2018-04-30T22:11:43.051Z,0.97
2018-04-30T22:14:10.443Z,0.90
2018-04-30T22:16:37.839Z,1.03
2018-04-30T22:19:05.202Z,1.30
2018-04-30T22:21:32.599Z,1.10
2018-04-30T22:23:59.990Z,0.97
2018-04-30T22:26:27.372Z,1.10
2018-04-30T22:28:54.770Z,1.20
2018-04-30T22:31:22.162Z,1.30
2018-04-30T22:33:49.598Z,1.00
2018-04-30T22:36:16.998Z,0.97
2018-04-30T22:38:44.399Z,0.90
2018-04-30T22:41:11.793Z,0.90
2018-04-30T22:43:39.179Z,1.10
2018-04-30T22:46:06.552Z,1.10
2018-04-30T22:48:33.940Z,1.10
2018-04-30T22:51:01.312Z,1.07
2018-04-30T22:53:28.775Z,1.10
2018-04-30T22:55:56.318Z,1.03
2018-04-30T22:58:23.699Z,0.93
2018-04-30T23:00:51.179Z,0.93
2018-04-30T23:03:18.571Z,1.03
2018-04-30T23:05:45.959Z,1.00
2018-04-30T23:08:13.326Z,0.97
2018-04-30T23:10:40.735Z,1.00
2018-04-30T23:13:08.107Z,0.90
2018-04-30T23:15:35.486Z,1.43
2018-04-30T23:18:02.855Z,1.40
2018-04-30T23:20:30.306Z,1.30
2018-04-30T23:22:57.720Z,1.30
2018-04-30T23:25:25.076Z,2.00
2018-04-30T23:27:52.469Z,1.20
2018-04-30T23:30:19.859Z,1.10
2018-04-30T23:32:47.266Z,0.83
2018-04-30T23:35:14.714Z,0.90
2018-04-30T23:37:42.023Z,0.80
2018-04-30T23:40:09.412Z,0.80
2018-04-30T23:42:36.800Z,0.97
2018-04-30T23:45:04.211Z,0.67
2018-04-30T23:47:31.716Z,0.60
2018-04-30T23:49:59.104Z,0.53
2018-04-30T23:52:26.521Z,0.90
2018-04-30T23:54:53.891Z,0.70
2018-04-30T23:57:21.286Z,0.90
2018-04-30T23:59:48.673Z,0.80
